sensor_id;sensor_type;location;lat;lon;timestamp;P1;durP1;ratioP1;P2;durP2;ratioP2
7845;SDS011;3968;51.424;6.788;2022-08-01T00:02:11;12.38;;;7.90;;
7845;SDS011;3968;51.424;6.788;2022-08-01T00:04:37;11.65;;;7.60;;
7845;SDS011;3968;51.424;6.788;2022-08-01T00:07:02;9.75;;;7.50;;
7845;SDS011;3968;51.424;6.788;2022-08-01T00:09:28;7.65;;;6.90;;
7845;SDS011;3968;51.424;6.788;2022-08-01T00:11:54;9.80;;;7.72;;
7845;SDS011;3968;51.424;6.788;2022-08-01T00:14:20;9.18;;;8.25;;
7845;SDS011;3968;51.424;6.788;2022-08-01T00:16:45;15.23;;;8.00;;
7845;SDS011;3968;51.424;6.788;2022-08-01T00:19:11;10.23;;;8.50;;
7845;SDS011;3968;51.424;6.788;2022-08-01T00:21:37;10.15;;;8.52;;
7845;SDS011;3968;51.424;6.788;2022-08-01T00:24:02;12.10;;;8.38;;
7845;SDS011;3968;51.424;6.788;2022-08-01T00:26:28;9.75;;;8.35;;
7845;SDS011;3968;51.424;6.788;2022-08-01T00:28:54;8.55;;;7.72;;
7845;SDS011;3968;51.424;6.788;2022-08-01T00:31:19;13.13;;;8.38;;
7845;SDS011;3968;51.424;6.788;2022-08-01T00:33:45;11.82;;;8.43;;
7845;SDS011;3968;51.424;6.788;2022-08-01T00:36:10;10.25;;;7.72;;
7845;SDS011;3968;51.424;6.788;2022-08-01T00:38:36;12.63;;;8.50;;
7845;SDS011;3968;51.424;6.788;2022-08-01T00:41:02;13.15;;;8.18;;
7845;SDS011;3968;51.424;6.788;2022-08-01T00:43:27;14.52;;;8.70;;
7845;SDS011;3968;51.424;6.788;2022-08-01T00:45:53;13.73;;;8.60;;
7845;SDS011;3968;51.424;6.788;2022-08-01T00:48:19;13.55;;;9.02;;
7845;SDS011;3968;51.424;6.788;2022-08-01T00:50:44;10.65;;;8.70;;
7845;SDS011;3968;51.424;6.788;2022-08-01T00:53:12;10.40;;;9.05;;
7845;SDS011;3968;51.424;6.788;2022-08-01T00:55:38;9.52;;;8.40;;
7845;SDS011;3968;51.424;6.788;2022-08-01T00:58:03;10.10;;;8.52;;
7845;SDS011;3968;51.424;6.788;2022-08-01T01:00:30;9.15;;;7.95;;
7845;SDS011;3968;51.424;6.788;2022-08-01T01:02:55;11.05;;;8.82;;
7845;SDS011;3968;51.424;6.788;2022-08-01T01:05:21;11.43;;;8.52;;
7845;SDS011;3968;51.424;6.788;2022-08-01T01:08:08;11.75;;;9.23;;
7845;SDS011;3968;51.424;6.788;2022-08-01T01:13:05;10.95;;;8.98;;
7845;SDS011;3968;51.424;6.788;2022-08-01T01:15:57;12.30;;;9.30;;
7845;SDS011;3968;51.424;6.788;2022-08-01T01:18:35;10.35;;;8.85;;
7845;SDS011;3968;51.424;6.788;2022-08-01T01:29:31;12.23;;;8.68;;
7845;SDS011;3968;51.424;6.788;2022-08-01T01:32:02;14.25;;;10.38;;
7845;SDS011;3968;51.424;6.788;2022-08-01T01:34:38;13.57;;;9.35;;
7845;SDS011;3968;51.424;6.788;2022-08-01T01:37:07;14.35;;;9.82;;
7845;SDS011;3968;51.424;6.788;2022-08-01T01:39:37;12.30;;;9.00;;
7845;SDS011;3968;51.424;6.788;2022-08-01T01:42:05;13.32;;;9.77;;
7845;SDS011;3968;51.424;6.788;2022-08-01T01:44:32;14.60;;;10.13;;
7845;SDS011;3968;51.424;6.788;2022-08-01T01:47:01;13.23;;;10.18;;
7845;SDS011;3968;51.424;6.788;2022-08-01T01:49:28;14.45;;;10.82;;
7845;SDS011;3968;51.424;6.788;2022-08-01T01:51:56;16.02;;;10.35;;
7845;SDS011;3968;51.424;6.788;2022-08-01T01:54:23;15.60;;;10.40;;
7845;SDS011;3968;51.424;6.788;2022-08-01T01:56:53;14.82;;;10.05;;
7845;SDS011;3968;51.424;6.788;2022-08-01T01:59:24;18.98;;;10.30;;
7845;SDS011;3968;51.424;6.788;2022-08-01T02:01:53;14.55;;;10.90;;
7845;SDS011;3968;51.424;6.788;2022-08-01T02:04:21;19.65;;;12.35;;
7845;SDS011;3968;51.424;6.788;2022-08-01T02:06:49;16.55;;;11.30;;
7845;SDS011;3968;51.424;6.788;2022-08-01T02:09:17;12.43;;;10.95;;
7845;SDS011;3968;51.424;6.788;2022-08-01T02:11:45;16.52;;;12.27;;
7845;SDS011;3968;51.424;6.788;2022-08-01T02:14:12;18.00;;;11.05;;
7845;SDS011;3968;51.424;6.788;2022-08-01T02:16:40;18.90;;;11.50;;
7845;SDS011;3968;51.424;6.788;2022-08-01T02:19:07;15.75;;;12.20;;
7845;SDS011;3968;51.424;6.788;2022-08-01T02:21:57;17.90;;;11.40;;
7845;SDS011;3968;51.424;6.788;2022-08-01T02:24:34;18.20;;;12.07;;
7845;SDS011;3968;51.424;6.788;2022-08-01T02:27:14;17.35;;;12.15;;
7845;SDS011;3968;51.424;6.788;2022-08-01T02:29:45;19.70;;;11.73;;
7845;SDS011;3968;51.424;6.788;2022-08-01T02:32:17;16.45;;;12.38;;
7845;SDS011;3968;51.424;6.788;2022-08-01T02:34:49;18.77;;;12.27;;
7845;SDS011;3968;51.424;6.788;2022-08-01T02:37:17;17.90;;;13.30;;
7845;SDS011;3968;51.424;6.788;2022-08-01T02:39:44;19.48;;;13.13;;
7845;SDS011;3968;51.424;6.788;2022-08-01T02:42:12;20.42;;;13.27;;
7845;SDS011;3968;51.424;6.788;2022-08-01T02:44:41;18.63;;;12.25;;
7845;SDS011;3968;51.424;6.788;2022-08-01T02:47:09;20.77;;;13.32;;
7845;SDS011;3968;51.424;6.788;2022-08-01T02:49:36;17.80;;;13.07;;
7845;SDS011;3968;51.424;6.788;2022-08-01T02:52:07;18.67;;;13.18;;
7845;SDS011;3968;51.424;6.788;2022-08-01T02:54:35;20.40;;;13.13;;
7845;SDS011;3968;51.424;6.788;2022-08-01T02:57:02;22.13;;;14.23;;
7845;SDS011;3968;51.424;6.788;2022-08-01T02:59:30;21.02;;;13.15;;
7845;SDS011;3968;51.424;6.788;2022-08-01T03:01:59;18.45;;;12.98;;
7845;SDS011;3968;51.424;6.788;2022-08-01T03:04:26;20.33;;;13.65;;
7845;SDS011;3968;51.424;6.788;2022-08-01T03:06:53;19.58;;;13.05;;
7845;SDS011;3968;51.424;6.788;2022-08-01T03:09:20;20.00;;;14.00;;
7845;SDS011;3968;51.424;6.788;2022-08-01T03:11:47;20.65;;;13.32;;
7845;SDS011;3968;51.424;6.788;2022-08-01T03:14:14;17.25;;;13.27;;
7845;SDS011;3968;51.424;6.788;2022-08-01T03:16:42;25.67;;;15.70;;
7845;SDS011;3968;51.424;6.788;2022-08-01T03:19:11;24.27;;;14.98;;
7845;SDS011;3968;51.424;6.788;2022-08-01T03:21:38;24.77;;;15.18;;
7845;SDS011;3968;51.424;6.788;2022-08-01T03:24:05;25.35;;;16.50;;
7845;SDS011;3968;51.424;6.788;2022-08-01T03:26:33;26.40;;;15.63;;
7845;SDS011;3968;51.424;6.788;2022-08-01T03:29:05;23.23;;;15.38;;
7845;SDS011;3968;51.424;6.788;2022-08-01T03:31:35;25.90;;;16.92;;
7845;SDS011;3968;51.424;6.788;2022-08-01T03:34:03;22.83;;;16.15;;
7845;SDS011;3968;51.424;6.788;2022-08-01T03:36:30;21.73;;;15.68;;
7845;SDS011;3968;51.424;6.788;2022-08-01T03:38:59;23.67;;;16.00;;
7845;SDS011;3968;51.424;6.788;2022-08-01T03:41:29;25.13;;;16.15;;
7845;SDS011;3968;51.424;6.788;2022-08-01T03:44:07;23.52;;;16.27;;
7845;SDS011;3968;51.424;6.788;2022-08-01T03:46:48;25.58;;;16.33;;
7845;SDS011;3968;51.424;6.788;2022-08-01T03:49:41;24.42;;;17.10;;
7845;SDS011;3968;51.424;6.788;2022-08-01T03:52:08;26.48;;;17.33;;
7845;SDS011;3968;51.424;6.788;2022-08-01T03:54:40;24.98;;;16.38;;
7845;SDS011;3968;51.424;6.788;2022-08-01T03:57:08;21.80;;;16.80;;
7845;SDS011;3968;51.424;6.788;2022-08-01T03:59:35;22.02;;;16.30;;
7845;SDS011;3968;51.424;6.788;2022-08-01T04:02:02;25.33;;;17.67;;
7845;SDS011;3968;51.424;6.788;2022-08-01T04:04:29;25.33;;;16.95;;
7845;SDS011;3968;51.424;6.788;2022-08-01T04:06:55;21.02;;;16.17;;
7845;SDS011;3968;51.424;6.788;2022-08-01T04:09:21;26.35;;;17.00;;
7845;SDS011;3968;51.424;6.788;2022-08-01T04:11:47;22.85;;;15.98;;
7845;SDS011;3968;51.424;6.788;2022-08-01T04:14:13;22.02;;;16.92;;
7845;SDS011;3968;51.424;6.788;2022-08-01T04:16:39;26.60;;;17.52;;
7845;SDS011;3968;51.424;6.788;2022-08-01T04:19:05;28.50;;;16.45;;
7845;SDS011;3968;51.424;6.788;2022-08-01T04:21:34;24.98;;;16.08;;
7845;SDS011;3968;51.424;6.788;2022-08-01T04:24:09;23.95;;;15.43;;
7845;SDS011;3968;51.424;6.788;2022-08-01T04:26:38;19.10;;;16.00;;
7845;SDS011;3968;51.424;6.788;2022-08-01T04:29:06;21.60;;;15.98;;
7845;SDS011;3968;51.424;6.788;2022-08-01T04:31:35;23.65;;;16.38;;
7845;SDS011;3968;51.424;6.788;2022-08-01T04:34:02;22.45;;;16.63;;
7845;SDS011;3968;51.424;6.788;2022-08-01T04:36:30;21.65;;;16.50;;
7845;SDS011;3968;51.424;6.788;2022-08-01T04:39:00;25.98;;;16.95;;
7845;SDS011;3968;51.424;6.788;2022-08-01T04:41:29;24.75;;;16.20;;
7845;SDS011;3968;51.424;6.788;2022-08-01T04:43:56;21.75;;;15.73;;
7845;SDS011;3968;51.424;6.788;2022-08-01T04:46:24;23.17;;;17.40;;
7845;SDS011;3968;51.424;6.788;2022-08-01T04:48:51;24.45;;;16.83;;
7845;SDS011;3968;51.424;6.788;2022-08-01T04:51:18;20.00;;;15.68;;
7845;SDS011;3968;51.424;6.788;2022-08-01T04:53:47;22.23;;;15.50;;
7845;SDS011;3968;51.424;6.788;2022-08-01T04:56:13;22.15;;;14.90;;
7845;SDS011;3968;51.424;6.788;2022-08-01T04:58:39;18.92;;;14.00;;
7845;SDS011;3968;51.424;6.788;2022-08-01T05:01:06;19.27;;;14.80;;
7845;SDS011;3968;51.424;6.788;2022-08-01T05:03:32;16.98;;;14.35;;
7845;SDS011;3968;51.424;6.788;2022-08-01T05:05:58;16.55;;;13.63;;
7845;SDS011;3968;51.424;6.788;2022-08-01T05:08:24;17.58;;;13.52;;
7845;SDS011;3968;51.424;6.788;2022-08-01T05:10:49;19.58;;;14.18;;
7845;SDS011;3968;51.424;6.788;2022-08-01T05:13:15;20.58;;;13.07;;
7845;SDS011;3968;51.424;6.788;2022-08-01T05:15:41;18.48;;;13.63;;
7845;SDS011;3968;51.424;6.788;2022-08-01T05:18:07;20.15;;;14.60;;
7845;SDS011;3968;51.424;6.788;2022-08-01T05:20:32;19.02;;;13.95;;
7845;SDS011;3968;51.424;6.788;2022-08-01T05:22:58;18.67;;;14.68;;
7845;SDS011;3968;51.424;6.788;2022-08-01T05:25:24;18.85;;;14.50;;
7845;SDS011;3968;51.424;6.788;2022-08-01T05:27:49;20.33;;;15.68;;
7845;SDS011;3968;51.424;6.788;2022-08-01T05:30:15;18.00;;;14.48;;
7845;SDS011;3968;51.424;6.788;2022-08-01T05:32:41;17.80;;;13.73;;
7845;SDS011;3968;51.424;6.788;2022-08-01T05:35:07;21.63;;;14.60;;
7845;SDS011;3968;51.424;6.788;2022-08-01T05:37:33;20.00;;;15.35;;
7845;SDS011;3968;51.424;6.788;2022-08-01T05:39:59;19.40;;;14.57;;
7845;SDS011;3968;51.424;6.788;2022-08-01T05:42:25;18.38;;;14.82;;
7845;SDS011;3968;51.424;6.788;2022-08-01T05:44:51;22.60;;;15.27;;
7845;SDS011;3968;51.424;6.788;2022-08-01T05:47:17;23.00;;;15.63;;
7845;SDS011;3968;51.424;6.788;2022-08-01T05:49:43;19.02;;;14.35;;
7845;SDS011;3968;51.424;6.788;2022-08-01T05:52:10;15.18;;;13.25;;
7845;SDS011;3968;51.424;6.788;2022-08-01T05:54:35;18.02;;;14.25;;
7845;SDS011;3968;51.424;6.788;2022-08-01T05:57:01;17.98;;;11.85;;
7845;SDS011;3968;51.424;6.788;2022-08-01T05:59:28;17.67;;;12.73;;
7845;SDS011;3968;51.424;6.788;2022-08-01T06:01:54;13.13;;;11.40;;
7845;SDS011;3968;51.424;6.788;2022-08-01T06:04:20;13.07;;;11.50;;
7845;SDS011;3968;51.424;6.788;2022-08-01T06:06:45;15.60;;;11.15;;
7845;SDS011;3968;51.424;6.788;2022-08-01T06:09:11;14.35;;;11.00;;
7845;SDS011;3968;51.424;6.788;2022-08-01T06:11:36;15.20;;;11.85;;
7845;SDS011;3968;51.424;6.788;2022-08-01T06:14:02;13.95;;;11.05;;
7845;SDS011;3968;51.424;6.788;2022-08-01T06:16:28;15.15;;;12.70;;
7845;SDS011;3968;51.424;6.788;2022-08-01T06:18:54;15.52;;;11.10;;
7845;SDS011;3968;51.424;6.788;2022-08-01T06:21:19;19.65;;;12.45;;
7845;SDS011;3968;51.424;6.788;2022-08-01T06:23:45;22.05;;;12.00;;
7845;SDS011;3968;51.424;6.788;2022-08-01T06:26:10;15.07;;;10.65;;
7845;SDS011;3968;51.424;6.788;2022-08-01T06:28:37;12.32;;;9.75;;
7845;SDS011;3968;51.424;6.788;2022-08-01T06:31:03;13.55;;;9.52;;
7845;SDS011;3968;51.424;6.788;2022-08-01T06:33:29;14.55;;;10.85;;
7845;SDS011;3968;51.424;6.788;2022-08-01T06:35:55;15.23;;;9.95;;
7845;SDS011;3968;51.424;6.788;2022-08-01T06:38:21;12.05;;;9.55;;
7845;SDS011;3968;51.424;6.788;2022-08-01T06:40:47;14.65;;;10.57;;
7845;SDS011;3968;51.424;6.788;2022-08-01T06:43:13;18.83;;;10.70;;
7845;SDS011;3968;51.424;6.788;2022-08-01T06:45:39;17.42;;;10.63;;
7845;SDS011;3968;51.424;6.788;2022-08-01T06:48:05;12.63;;;9.85;;
7845;SDS011;3968;51.424;6.788;2022-08-01T06:50:31;10.57;;;9.32;;
7845;SDS011;3968;51.424;6.788;2022-08-01T06:52:57;11.73;;;8.52;;
7845;SDS011;3968;51.424;6.788;2022-08-01T06:55:23;10.68;;;6.88;;
7845;SDS011;3968;51.424;6.788;2022-08-01T06:57:50;13.68;;;7.85;;
7845;SDS011;3968;51.424;6.788;2022-08-01T07:00:17;10.38;;;7.82;;
7845;SDS011;3968;51.424;6.788;2022-08-01T07:02:48;9.55;;;6.47;;
7845;SDS011;3968;51.424;6.788;2022-08-01T07:05:15;8.48;;;7.07;;
7845;SDS011;3968;51.424;6.788;2022-08-01T07:07:40;9.75;;;6.88;;
7845;SDS011;3968;51.424;6.788;2022-08-01T07:10:06;11.30;;;6.97;;
7845;SDS011;3968;51.424;6.788;2022-08-01T07:12:33;9.60;;;6.70;;
7845;SDS011;3968;51.424;6.788;2022-08-01T07:15:02;8.52;;;5.35;;
7845;SDS011;3968;51.424;6.788;2022-08-01T07:17:28;8.95;;;5.00;;
7845;SDS011;3968;51.424;6.788;2022-08-01T07:19:54;8.38;;;4.80;;
7845;SDS011;3968;51.424;6.788;2022-08-01T07:22:20;7.38;;;5.10;;
7845;SDS011;3968;51.424;6.788;2022-08-01T07:24:46;9.20;;;6.07;;
7845;SDS011;3968;51.424;6.788;2022-08-01T07:27:11;6.65;;;5.28;;
7845;SDS011;3968;51.424;6.788;2022-08-01T07:29:37;6.22;;;5.00;;
7845;SDS011;3968;51.424;6.788;2022-08-01T07:32:03;10.13;;;5.40;;
7845;SDS011;3968;51.424;6.788;2022-08-01T07:34:29;9.85;;;6.40;;
7845;SDS011;3968;51.424;6.788;2022-08-01T07:36:54;10.00;;;5.20;;
7845;SDS011;3968;51.424;6.788;2022-08-01T07:39:20;7.40;;;6.13;;
7845;SDS011;3968;51.424;6.788;2022-08-01T07:41:46;6.00;;;5.40;;
7845;SDS011;3968;51.424;6.788;2022-08-01T07:44:12;5.78;;;4.80;;
7845;SDS011;3968;51.424;6.788;2022-08-01T07:46:37;5.53;;;4.28;;
7845;SDS011;3968;51.424;6.788;2022-08-01T07:49:03;9.07;;;5.70;;
7845;SDS011;3968;51.424;6.788;2022-08-01T07:51:29;5.50;;;4.50;;
7845;SDS011;3968;51.424;6.788;2022-08-01T07:53:54;5.43;;;4.38;;
7845;SDS011;3968;51.424;6.788;2022-08-01T07:56:20;6.78;;;4.47;;
7845;SDS011;3968;51.424;6.788;2022-08-01T07:58:48;6.80;;;5.35;;
7845;SDS011;3968;51.424;6.788;2022-08-01T08:01:15;7.50;;;5.28;;
7845;SDS011;3968;51.424;6.788;2022-08-01T08:03:40;11.35;;;5.93;;
7845;SDS011;3968;51.424;6.788;2022-08-01T08:06:06;9.00;;;5.47;;
7845;SDS011;3968;51.424;6.788;2022-08-01T08:08:32;6.10;;;5.05;;
7845;SDS011;3968;51.424;6.788;2022-08-01T08:10:59;6.70;;;4.85;;
7845;SDS011;3968;51.424;6.788;2022-08-01T08:13:25;6.75;;;5.45;;
7845;SDS011;3968;51.424;6.788;2022-08-01T08:15:51;11.50;;;4.88;;
7845;SDS011;3968;51.424;6.788;2022-08-01T08:18:17;6.30;;;4.85;;
7845;SDS011;3968;51.424;6.788;2022-08-01T08:20:43;7.47;;;4.97;;
7845;SDS011;3968;51.424;6.788;2022-08-01T08:23:08;7.47;;;5.25;;
7845;SDS011;3968;51.424;6.788;2022-08-01T08:25:53;4.53;;;3.92;;
7845;SDS011;3968;51.424;6.788;2022-08-01T08:28:19;2.78;;;2.53;;
7845;SDS011;3968;51.424;6.788;2022-08-01T08:30:44;4.47;;;2.30;;
7845;SDS011;3968;51.424;6.788;2022-08-01T08:33:10;4.72;;;2.83;;
7845;SDS011;3968;51.424;6.788;2022-08-01T08:35:38;4.13;;;3.40;;
7845;SDS011;3968;51.424;6.788;2022-08-01T08:38:05;4.13;;;3.10;;
7845;SDS011;3968;51.424;6.788;2022-08-01T08:40:31;4.28;;;3.88;;
7845;SDS011;3968;51.424;6.788;2022-08-01T08:42:59;3.13;;;2.60;;
7845;SDS011;3968;51.424;6.788;2022-08-01T08:45:26;2.53;;;2.33;;
7845;SDS011;3968;51.424;6.788;2022-08-01T08:47:53;4.57;;;3.17;;
7845;SDS011;3968;51.424;6.788;2022-08-01T08:50:22;3.28;;;2.75;;
7845;SDS011;3968;51.424;6.788;2022-08-01T08:52:48;3.63;;;2.90;;
7845;SDS011;3968;51.424;6.788;2022-08-01T08:55:16;2.58;;;1.90;;
7845;SDS011;3968;51.424;6.788;2022-08-01T08:57:43;4.88;;;2.25;;
7845;SDS011;3968;51.424;6.788;2022-08-01T09:00:09;2.90;;;2.35;;
7845;SDS011;3968;51.424;6.788;2022-08-01T09:02:40;3.67;;;2.50;;
7845;SDS011;3968;51.424;6.788;2022-08-01T09:05:07;2.53;;;2.17;;
7845;SDS011;3968;51.424;6.788;2022-08-01T09:07:33;2.92;;;1.95;;
7845;SDS011;3968;51.424;6.788;2022-08-01T09:09:59;3.10;;;2.70;;
7845;SDS011;3968;51.424;6.788;2022-08-01T09:12:24;3.15;;;2.70;;
7845;SDS011;3968;51.424;6.788;2022-08-01T09:14:50;2.20;;;2.00;;
7845;SDS011;3968;51.424;6.788;2022-08-01T09:17:18;2.63;;;2.00;;
7845;SDS011;3968;51.424;6.788;2022-08-01T09:19:46;3.95;;;2.30;;
7845;SDS011;3968;51.424;6.788;2022-08-01T09:22:20;3.17;;;2.50;;
7845;SDS011;3968;51.424;6.788;2022-08-01T09:25:02;2.83;;;2.58;;
7845;SDS011;3968;51.424;6.788;2022-08-01T09:27:32;2.47;;;2.22;;
7845;SDS011;3968;51.424;6.788;2022-08-01T09:30:12;2.30;;;2.10;;
7845;SDS011;3968;51.424;6.788;2022-08-01T09:32:59;4.10;;;2.83;;
7845;SDS011;3968;51.424;6.788;2022-08-01T09:35:30;4.65;;;2.88;;
7845;SDS011;3968;51.424;6.788;2022-08-01T09:38:21;4.18;;;2.70;;
7845;SDS011;3968;51.424;6.788;2022-08-01T09:43:23;4.82;;;2.90;;
7845;SDS011;3968;51.424;6.788;2022-08-01T09:45:50;2.83;;;2.50;;
7845;SDS011;3968;51.424;6.788;2022-08-01T09:48:18;3.10;;;2.75;;
7845;SDS011;3968;51.424;6.788;2022-08-01T09:50:45;4.22;;;2.80;;
7845;SDS011;3968;51.424;6.788;2022-08-01T09:53:13;2.65;;;2.42;;
7845;SDS011;3968;51.424;6.788;2022-08-01T09:55:39;2.67;;;2.47;;
7845;SDS011;3968;51.424;6.788;2022-08-01T09:58:05;5.13;;;2.45;;
7845;SDS011;3968;51.424;6.788;2022-08-01T10:00:32;4.70;;;2.40;;
7845;SDS011;3968;51.424;6.788;2022-08-01T10:02:59;3.88;;;2.70;;
7845;SDS011;3968;51.424;6.788;2022-08-01T10:05:42;4.30;;;3.05;;
7845;SDS011;3968;51.424;6.788;2022-08-01T10:08:08;3.03;;;2.72;;
7845;SDS011;3968;51.424;6.788;2022-08-01T10:10:35;2.95;;;2.67;;
7845;SDS011;3968;51.424;6.788;2022-08-01T10:13:01;2.00;;;1.83;;
7845;SDS011;3968;51.424;6.788;2022-08-01T10:15:27;3.05;;;2.17;;
7845;SDS011;3968;51.424;6.788;2022-08-01T10:17:59;2.70;;;2.30;;
7845;SDS011;3968;51.424;6.788;2022-08-01T10:20:28;2.58;;;2.38;;
7845;SDS011;3968;51.424;6.788;2022-08-01T10:22:57;2.50;;;2.30;;
7845;SDS011;3968;51.424;6.788;2022-08-01T10:25:26;3.67;;;2.40;;
7845;SDS011;3968;51.424;6.788;2022-08-01T10:27:53;3.72;;;2.38;;
7845;SDS011;3968;51.424;6.788;2022-08-01T10:30:20;3.28;;;2.30;;
7845;SDS011;3968;51.424;6.788;2022-08-01T10:32:45;2.72;;;2.10;;
7845;SDS011;3968;51.424;6.788;2022-08-01T10:35:12;3.05;;;2.50;;
7845;SDS011;3968;51.424;6.788;2022-08-01T10:37:42;2.08;;;1.88;;
7845;SDS011;3968;51.424;6.788;2022-08-01T10:40:11;1.67;;;1.58;;
7845;SDS011;3968;51.424;6.788;2022-08-01T10:42:39;1.67;;;1.58;;
7845;SDS011;3968;51.424;6.788;2022-08-01T10:45:11;17.00;;;2.30;;
7845;SDS011;3968;51.424;6.788;2022-08-01T10:47:57;3.13;;;2.00;;
7845;SDS011;3968;51.424;6.788;2022-08-01T10:50:35;1.50;;;1.40;;
7845;SDS011;3968;51.424;6.788;2022-08-01T10:58:21;2.95;;;1.75;;
7845;SDS011;3968;51.424;6.788;2022-08-01T11:03:58;7.53;;;2.25;;
7845;SDS011;3968;51.424;6.788;2022-08-01T11:08:58;3.65;;;2.45;;
7845;SDS011;3968;51.424;6.788;2022-08-01T11:17:30;3.90;;;2.20;;
7845;SDS011;3968;51.424;6.788;2022-08-01T11:30:39;3.60;;;1.50;;
7845;SDS011;3968;51.424;6.788;2022-08-01T11:33:05;13.10;;;2.10;;
7845;SDS011;3968;51.424;6.788;2022-08-01T11:35:31;2.50;;;2.05;;
7845;SDS011;3968;51.424;6.788;2022-08-01T11:38:21;5.43;;;2.00;;
7845;SDS011;3968;51.424;6.788;2022-08-01T11:49:22;4.45;;;1.50;;
7845;SDS011;3968;51.424;6.788;2022-08-01T11:54:34;2.60;;;1.80;;
7845;SDS011;3968;51.424;6.788;2022-08-01T11:57:03;1.75;;;1.23;;
7845;SDS011;3968;51.424;6.788;2022-08-01T12:02:15;2.33;;;1.40;;
7845;SDS011;3968;51.424;6.788;2022-08-01T12:05:30;2.42;;;1.73;;
7845;SDS011;3968;51.424;6.788;2022-08-01T12:07:37;3.30;;;1.60;;
7845;SDS011;3968;51.424;6.788;2022-08-01T12:10:06;2.67;;;1.48;;
7845;SDS011;3968;51.424;6.788;2022-08-01T12:12:32;4.70;;;1.77;;
7845;SDS011;3968;51.424;6.788;2022-08-01T12:15:06;4.88;;;1.80;;
7845;SDS011;3968;51.424;6.788;2022-08-01T12:17:38;2.95;;;1.70;;
7845;SDS011;3968;51.424;6.788;2022-08-01T12:20:07;4.82;;;1.60;;
7845;SDS011;3968;51.424;6.788;2022-08-01T12:22:34;2.10;;;1.90;;
7845;SDS011;3968;51.424;6.788;2022-08-01T12:25:07;2.83;;;1.58;;
7845;SDS011;3968;51.424;6.788;2022-08-01T12:27:38;2.15;;;1.85;;
7845;SDS011;3968;51.424;6.788;2022-08-01T12:30:09;4.45;;;1.73;;
7845;SDS011;3968;51.424;6.788;2022-08-01T12:32:37;3.92;;;1.58;;
7845;SDS011;3968;51.424;6.788;2022-08-01T12:37:40;4.30;;;1.20;;
7845;SDS011;3968;51.424;6.788;2022-08-01T12:42:38;1.85;;;1.20;;
7845;SDS011;3968;51.424;6.788;2022-08-01T12:45:06;4.70;;;1.48;;
7845;SDS011;3968;51.424;6.788;2022-08-01T12:47:34;13.85;;;1.92;;
7845;SDS011;3968;51.424;6.788;2022-08-01T12:50:02;4.78;;;1.70;;
7845;SDS011;3968;51.424;6.788;2022-08-01T12:52:33;2.72;;;1.90;;
7845;SDS011;3968;51.424;6.788;2022-08-01T12:55:00;2.10;;;1.20;;
7845;SDS011;3968;51.424;6.788;2022-08-01T12:57:27;2.30;;;1.20;;
7845;SDS011;3968;51.424;6.788;2022-08-01T12:59:53;2.33;;;1.30;;
7845;SDS011;3968;51.424;6.788;2022-08-01T13:02:32;162.10;;;9.02;;
7845;SDS011;3968;51.424;6.788;2022-08-01T13:04:58;108.50;;;6.00;;
7845;SDS011;3968;51.424;6.788;2022-08-01T13:07:41;14.50;;;2.22;;
7845;SDS011;3968;51.424;6.788;2022-08-01T13:10:11;2.58;;;1.30;;
7845;SDS011;3968;51.424;6.788;2022-08-01T13:12:38;2.22;;;1.63;;
7845;SDS011;3968;51.424;6.788;2022-08-01T13:15:18;2.83;;;1.33;;
7845;SDS011;3968;51.424;6.788;2022-08-01T13:17:49;1.35;;;1.10;;
7845;SDS011;3968;51.424;6.788;2022-08-01T13:20:22;2.03;;;1.25;;
7845;SDS011;3968;51.424;6.788;2022-08-01T13:22:52;369.90;;;20.98;;
7845;SDS011;3968;51.424;6.788;2022-08-01T13:25:19;1.83;;;1.30;;
7845;SDS011;3968;51.424;6.788;2022-08-01T13:27:45;15.07;;;2.28;;
7845;SDS011;3968;51.424;6.788;2022-08-01T13:30:14;4.30;;;1.90;;
7845;SDS011;3968;51.424;6.788;2022-08-01T13:32:56;3.55;;;1.65;;
7845;SDS011;3968;51.424;6.788;2022-08-01T13:35:25;6.10;;;1.95;;
7845;SDS011;3968;51.424;6.788;2022-08-01T13:37:51;3.13;;;1.70;;
7845;SDS011;3968;51.424;6.788;2022-08-01T13:40:24;7.45;;;1.70;;
7845;SDS011;3968;51.424;6.788;2022-08-01T13:42:51;3.30;;;1.52;;
7845;SDS011;3968;51.424;6.788;2022-08-01T13:45:18;2.35;;;1.88;;
7845;SDS011;3968;51.424;6.788;2022-08-01T13:47:44;5.25;;;2.38;;
7845;SDS011;3968;51.424;6.788;2022-08-01T13:50:10;6.40;;;1.50;;
7845;SDS011;3968;51.424;6.788;2022-08-01T13:52:35;3.15;;;1.70;;
7845;SDS011;3968;51.424;6.788;2022-08-01T13:55:01;3.15;;;1.60;;
7845;SDS011;3968;51.424;6.788;2022-08-01T13:57:27;6.50;;;1.80;;
7845;SDS011;3968;51.424;6.788;2022-08-01T13:59:53;3.38;;;2.17;;
7845;SDS011;3968;51.424;6.788;2022-08-01T14:02:19;5.25;;;2.08;;
7845;SDS011;3968;51.424;6.788;2022-08-01T14:04:45;3.80;;;2.20;;
7845;SDS011;3968;51.424;6.788;2022-08-01T14:07:11;3.72;;;1.80;;
7845;SDS011;3968;51.424;6.788;2022-08-01T14:09:37;9.00;;;2.30;;
7845;SDS011;3968;51.424;6.788;2022-08-01T14:12:03;5.00;;;2.08;;
7845;SDS011;3968;51.424;6.788;2022-08-01T14:14:29;6.22;;;1.70;;
7845;SDS011;3968;51.424;6.788;2022-08-01T14:16:55;7.18;;;2.00;;
7845;SDS011;3968;51.424;6.788;2022-08-01T14:19:21;5.15;;;1.60;;
7845;SDS011;3968;51.424;6.788;2022-08-01T14:21:47;4.10;;;1.95;;
7845;SDS011;3968;51.424;6.788;2022-08-01T14:24:12;2.50;;;1.85;;
7845;SDS011;3968;51.424;6.788;2022-08-01T14:26:38;4.50;;;2.20;;
7845;SDS011;3968;51.424;6.788;2022-08-01T14:29:04;3.03;;;2.15;;
7845;SDS011;3968;51.424;6.788;2022-08-01T14:31:29;4.50;;;1.80;;
7845;SDS011;3968;51.424;6.788;2022-08-01T14:33:55;3.78;;;1.83;;
7845;SDS011;3968;51.424;6.788;2022-08-01T14:36:21;4.60;;;1.70;;
7845;SDS011;3968;51.424;6.788;2022-08-01T14:38:47;3.78;;;2.40;;
7845;SDS011;3968;51.424;6.788;2022-08-01T14:41:15;6.55;;;3.20;;
7845;SDS011;3968;51.424;6.788;2022-08-01T14:43:41;6.65;;;3.70;;
7845;SDS011;3968;51.424;6.788;2022-08-01T14:46:07;3.45;;;2.20;;
7845;SDS011;3968;51.424;6.788;2022-08-01T14:48:35;6.25;;;2.13;;
7845;SDS011;3968;51.424;6.788;2022-08-01T14:51:00;5.25;;;2.13;;
7845;SDS011;3968;51.424;6.788;2022-08-01T14:53:27;5.22;;;3.00;;
7845;SDS011;3968;51.424;6.788;2022-08-01T14:55:53;3.22;;;2.28;;
7845;SDS011;3968;51.424;6.788;2022-08-01T14:58:19;5.97;;;2.20;;
7845;SDS011;3968;51.424;6.788;2022-08-01T15:00:45;5.82;;;2.50;;
7845;SDS011;3968;51.424;6.788;2022-08-01T15:03:10;5.13;;;2.33;;
7845;SDS011;3968;51.424;6.788;2022-08-01T15:05:36;4.82;;;2.20;;
7845;SDS011;3968;51.424;6.788;2022-08-01T15:08:02;6.13;;;2.17;;
7845;SDS011;3968;51.424;6.788;2022-08-01T15:10:28;4.38;;;2.22;;
7845;SDS011;3968;51.424;6.788;2022-08-01T15:12:54;9.38;;;3.10;;
7845;SDS011;3968;51.424;6.788;2022-08-01T15:15:20;4.82;;;2.08;;
7845;SDS011;3968;51.424;6.788;2022-08-01T15:17:46;4.15;;;2.10;;
7845;SDS011;3968;51.424;6.788;2022-08-01T15:20:12;6.10;;;2.42;;
7845;SDS011;3968;51.424;6.788;2022-08-01T15:22:37;2.92;;;1.90;;
7845;SDS011;3968;51.424;6.788;2022-08-01T15:25:03;4.50;;;2.60;;
7845;SDS011;3968;51.424;6.788;2022-08-01T15:27:29;2.20;;;1.80;;
7845;SDS011;3968;51.424;6.788;2022-08-01T15:29:55;3.47;;;2.00;;
7845;SDS011;3968;51.424;6.788;2022-08-01T15:32:21;3.85;;;1.83;;
7845;SDS011;3968;51.424;6.788;2022-08-01T15:34:47;2.47;;;1.52;;
7845;SDS011;3968;51.424;6.788;2022-08-01T15:37:13;2.92;;;2.03;;
7845;SDS011;3968;51.424;6.788;2022-08-01T15:39:39;4.03;;;1.60;;
7845;SDS011;3968;51.424;6.788;2022-08-01T15:42:07;4.13;;;1.90;;
7845;SDS011;3968;51.424;6.788;2022-08-01T15:44:36;5.72;;;1.92;;
7845;SDS011;3968;51.424;6.788;2022-08-01T15:47:02;6.40;;;1.80;;
7845;SDS011;3968;51.424;6.788;2022-08-01T15:49:29;4.30;;;2.58;;
7845;SDS011;3968;51.424;6.788;2022-08-01T15:51:54;3.83;;;1.75;;
7845;SDS011;3968;51.424;6.788;2022-08-01T15:54:20;4.00;;;1.95;;
7845;SDS011;3968;51.424;6.788;2022-08-01T15:56:46;5.10;;;2.80;;
7845;SDS011;3968;51.424;6.788;2022-08-01T15:59:12;2.63;;;1.80;;
7845;SDS011;3968;51.424;6.788;2022-08-01T16:01:38;4.28;;;2.50;;
7845;SDS011;3968;51.424;6.788;2022-08-01T16:04:04;4.03;;;2.50;;
7845;SDS011;3968;51.424;6.788;2022-08-01T16:06:31;3.55;;;2.25;;
7845;SDS011;3968;51.424;6.788;2022-08-01T16:08:57;3.75;;;2.20;;
7845;SDS011;3968;51.424;6.788;2022-08-01T16:11:23;5.32;;;2.10;;